Time;durP1;ratioP1;P1;durP2;ratioP2;P2;SDS_P1;SDS_P2;PMS_P1;PMS_P2;Temp;Humidity;BMP_temperature;BMP_pressure;BME280_temperature;BME280_humidity;BME280_pressure;Samples;Min_cycle;Max_cycle;Signal;HPM_P1;HPM_P2
2022/07/27 00:02:05;;;;;;;;;;;13.80;99.90;;;;;;5136453;27;19927;-69
2022/07/27 00:04:30;;;;;;;;;;;13.80;99.90;;;;;;5136354;27;20434;-68
2022/07/27 00:06:56;;;;;;;;;;;13.80;99.90;;;;;;5136220;27;19953;-68
2022/07/27 00:09:22;;;;;;;;;;;13.80;99.90;;;;;;5136346;27;19923;-69
2022/07/27 00:11:48;;;;;;;;;;;13.70;99.90;;;;;;5136019;27;20416;-69
2022/07/27 00:14:14;;;;;;;;;;;13.70;99.90;;;;;;5136037;27;20010;-70
2022/07/27 00:16:40;;;;;;;;;;;13.70;99.90;;;;;;5136236;27;19930;-70
2022/07/27 00:19:05;;;;;;;;;;;13.70;99.90;;;;;;5136097;27;20006;-69
2022/07/27 00:21:31;;;;;;;;;;;13.70;99.90;;;;;;5135901;27;19923;-70
2022/07/27 00:23:57;;;;;;;;;;;13.80;99.90;;;;;;5135914;27;19977;-69
2022/07/27 00:26:22;;;;;;;;;;;13.90;99.90;;;;;;5135602;27;19923;-70
2022/07/27 00:28:48;;;;;;;;;;;13.80;99.90;;;;;;5135492;27;19949;-68
2022/07/27 00:31:14;;;;;;;;;;;13.80;99.90;;;;;;5134758;27;20392;-71
2022/07/27 00:33:40;;;;;;;;;;;13.70;99.90;;;;;;5117715;27;20263;-68
2022/07/27 00:36:05;;;;;;;;;;;13.70;99.90;;;;;;5135704;27;19923;-68
2022/07/27 00:38:31;;;;;;;;;;;13.70;99.90;;;;;;5135723;27;19923;-69
2022/07/27 00:40:56;;;;;;;;;;;13.70;99.90;;;;;;5117455;27;19923;-68
2022/07/27 00:43:22;;;;;;;;;;;13.70;99.90;;;;;;5135461;27;19977;-70
2022/07/27 00:45:48;;;;;;;;;;;13.60;99.90;;;;;;5117347;27;19980;-70
2022/07/27 00:48:13;;;;;;;;;;;12.80;99.90;;;;;;5135488;27;19924;-68
2022/07/27 00:50:40;;;;;;;;;;;13.60;99.90;;;;;;5135504;27;19923;-68
2022/07/27 00:53:07;;;;;;;;;;;13.60;99.90;;;;;;5117124;27;19931;-69
2022/07/27 00:55:33;;;;;;;;;;;14.20;99.90;;;;;;5117058;27;19975;-68
2022/07/27 00:57:59;;;;;;;;;;;13.60;99.90;;;;;;5151511;27;19927;-69
2022/07/27 01:00:28;;;;;;;;;;;13.60;99.90;;;;;;5135151;27;19923;-69
2022/07/27 01:02:53;;;;;;;;;;;13.60;99.90;;;;;;5135462;27;19924;-69
2022/07/27 01:05:19;;;;;;;;;;;13.60;99.90;;;;;;5135233;27;19923;-68
2022/07/27 01:07:44;;;;;;;;;;;13.50;99.90;;;;;;5151439;27;19976;-69
2022/07/27 01:10:10;;;;;;;;;;;13.50;99.90;;;;;;5116832;27;20397;-70
2022/07/27 01:12:36;;;;;;;;;;;13.50;99.90;;;;;;5135043;27;20376;-68
2022/07/27 01:15:01;;;;;;;;;;;13.50;99.90;;;;;;5134856;27;19924;-70
2022/07/27 01:17:31;;;;;;;;;;;13.40;99.90;;;;;;5135100;27;20397;-70
2022/07/27 01:19:57;;;;;;;;;;;13.40;99.90;;;;;;5135078;27;19923;-69
2022/07/27 01:22:23;;;;;;;;;;;13.40;99.90;;;;;;5134994;27;19923;-69
2022/07/27 01:24:49;;;;;;;;;;;13.50;99.90;;;;;;5134948;27;19935;-69
2022/07/27 01:27:14;;;;;;;;;;;13.90;99.90;;;;;;5134470;27;19930;-70
2022/07/27 01:29:40;;;;;;;;;;;13.40;99.90;;;;;;5134569;27;19923;-68
2022/07/27 01:32:06;;;;;;;;;;;13.30;99.90;;;;;;5134935;27;20393;-68
2022/07/27 01:34:32;;;;;;;;;;;13.30;99.90;;;;;;5134852;27;19930;-68
2022/07/27 01:36:58;;;;;;;;;;;13.30;99.90;;;;;;5134853;27;19923;-67
2022/07/27 01:39:24;;;;;;;;;;;13.30;99.90;;;;;;5134771;28;19966;-69
2022/07/27 01:41:50;;;;;;;;;;;13.30;99.90;;;;;;5134219;27;19976;-69
2022/07/27 01:44:15;;;;;;;;;;;13.40;99.90;;;;;;5134596;28;19930;-68
2022/07/27 01:46:41;;;;;;;;;;;13.30;99.90;;;;;;5134667;28;20382;-69
2022/07/27 01:49:06;;;;;;;;;;;13.30;99.90;;;;;;5150723;27;20322;-68
2022/07/27 01:51:32;;;;;;;;;;;13.30;99.90;;;;;;5134744;28;19924;-69
2022/07/27 01:53:57;;;;;;;;;;;12.90;99.90;;;;;;5134563;28;19935;-69
2022/07/27 01:56:23;;;;;;;;;;;13.30;99.90;;;;;;5134472;28;19927;-70
2022/07/27 01:58:48;;;;;;;;;;;13.60;99.90;;;;;;5116402;28;19931;-69
2022/07/27 02:01:14;;;;;;;;;;;13.50;99.90;;;;;;5134254;28;20018;-69
2022/07/27 02:03:40;;;;;;;;;;;13.30;99.90;;;;;;5116188;28;19923;-67
2022/07/27 02:06:05;;;;;;;;;;;13.30;99.90;;;;;;5116460;28;20449;-70
2022/07/27 02:08:31;;;;;;;;;;;13.30;99.90;;;;;;5134430;28;19931;-68
2022/07/27 02:13:47;;;;;;;;;;;13.20;99.90;;;;;;5134235;28;19983;-70
2022/07/27 02:16:13;;;;;;;;;;;13.20;99.90;;;;;;5116280;28;19930;-70
2022/07/27 02:18:39;;;;;;;;;;;13.10;99.90;;;;;;5134441;28;19930;-70
2022/07/27 02:21:05;;;;;;;;;;;13.10;99.90;;;;;;5134460;28;20047;-70
2022/07/27 02:23:31;;;;;;;;;;;13.10;99.90;;;;;;5134356;28;20378;-69
2022/07/27 02:25:57;;;;;;;;;;;13.10;99.90;;;;;;5134070;28;19923;-69
2022/07/27 02:28:22;;;;;;;;;;;13.10;99.90;;;;;;5133969;28;19924;-68
2022/07/27 02:30:48;;;;;;;;;;;13.10;99.90;;;;;;5134050;28;19989;-69
2022/07/27 02:33:14;;;;;;;;;;;13.50;99.90;;;;;;5134367;28;19931;-69
2022/07/27 02:35:39;;;;;;;;;;;13.10;99.90;;;;;;5134304;28;19928;-69
2022/07/27 02:38:05;;;;;;;;;;;13.10;99.90;;;;;;5116161;28;19984;-69
2022/07/27 02:40:30;;;;;;;;;;;13.20;99.90;;;;;;5134271;28;19946;-70
2022/07/27 02:42:56;;;;;;;;;;;13.30;99.90;;;;;;5134073;28;19924;-69
2022/07/27 02:45:21;;;;;;;;;;;13.20;99.90;;;;;;5134023;28;19923;-68
2022/07/27 02:47:47;;;;;;;;;;;13.20;99.90;;;;;;5134464;28;19930;-69
2022/07/27 02:50:12;;;;;;;;;;;13.20;99.90;;;;;;5150584;27;19923;-68
2022/07/27 02:52:38;;;;;;;;;;;13.20;99.90;;;;;;5134075;27;19980;-70
2022/07/27 02:55:04;;;;;;;;;;;13.20;99.90;;;;;;5137521;27;19924;-69
2022/07/27 02:57:33;;;;;;;;;;;13.20;99.90;;;;;;5153835;27;20400;-68
2022/07/27 02:59:59;;;;;;;;;;;13.30;99.90;;;;;;5119128;27;19931;-69
2022/07/27 03:02:24;;;;;;;;;;;13.20;99.90;;;;;;5137662;27;19992;-69
2022/07/27 03:04:50;;;;;;;;;;;13.40;99.90;;;;;;5119549;27;20263;-69
2022/07/27 03:07:15;;;;;;;;;;;13.20;99.90;;;;;;5137463;27;20026;-69
2022/07/27 03:09:41;;;;;;;;;;;13.20;99.90;;;;;;5137462;27;19930;-70
2022/07/27 03:12:06;;;;;;;;;;;12.30;99.90;;;;;;5137348;27;19980;-68
2022/07/27 03:14:32;;;;;;;;;;;13.10;99.90;;;;;;5119026;27;19924;-67
2022/07/27 03:16:57;;;;;;;;;;;13.20;99.90;;;;;;5137114;27;19967;-71
2022/07/27 03:19:23;;;;;;;;;;;13.20;99.90;;;;;;5137333;27;19927;-68
2022/07/27 03:21:48;;;;;;;;;;;13.20;99.90;;;;;;5153623;27;20011;-69
2022/07/27 03:24:14;;;;;;;;;;;13.20;99.90;;;;;;5137146;27;19962;-69
2022/07/27 03:26:40;;;;;;;;;;;13.20;99.90;;;;;;5118878;27;19923;-67
2022/07/27 03:29:05;;;;;;;;;;;13.20;99.90;;;;;;5136807;27;19924;-68
2022/07/27 03:31:31;;;;;;;;;;;13.10;99.90;;;;;;5137006;27;20270;-68
2022/07/27 03:33:56;;;;;;;;;;;13.10;99.90;;;;;;5136823;27;20275;-68
2022/07/27 03:36:22;;;;;;;;;;;13.10;99.90;;;;;;5137005;27;19923;-70
2022/07/27 03:38:47;;;;;;;;;;;13.20;99.90;;;;;;5136998;27;19930;-69
2022/07/27 03:41:13;;;;;;;;;;;11.80;99.90;;;;;;5153195;27;19924;-68
2022/07/27 03:43:39;;;;;;;;;;;13.10;99.90;;;;;;5136764;27;20328;-68
2022/07/27 03:46:04;;;;;;;;;;;13.10;99.90;;;;;;5136706;27;19923;-69
2022/07/27 03:48:30;;;;;;;;;;;13.00;99.90;;;;;;5136510;27;19975;-69
2022/07/27 03:50:56;;;;;;;;;;;13.00;99.90;;;;;;5136779;27;19924;-70
2022/07/27 03:53:21;;;;;;;;;;;13.10;99.90;;;;;;5136612;27;19923;-70
2022/07/27 03:55:47;;;;;;;;;;;13.00;99.90;;;;;;5152873;27;19946;-69
2022/07/27 03:58:13;;;;;;;;;;;12.90;99.90;;;;;;5136808;27;19981;-68
2022/07/27 04:00:39;;;;;;;;;;;12.90;99.90;;;;;;5152756;27;19927;-69
2022/07/27 04:03:04;;;;;;;;;;;12.80;99.90;;;;;;5117822;27;19973;-69
2022/07/27 04:05:30;;;;;;;;;;;12.80;99.90;;;;;;5136146;27;19927;-70
2022/07/27 04:07:55;;;;;;;;;;;12.80;99.90;;;;;;5136230;27;19975;-69
2022/07/27 04:10:21;;;;;;;;;;;12.80;99.90;;;;;;5136270;27;19931;-69
2022/07/27 04:12:47;;;;;;;;;;;12.70;99.90;;;;;;5136114;27;19927;-69
2022/07/27 04:15:13;;;;;;;;;;;12.70;99.90;;;;;;5136099;27;19923;-70
2022/07/27 04:17:38;;;;;;;;;;;12.50;99.90;;;;;;5135938;27;20036;-67
2022/07/27 04:20:04;;;;;;;;;;;12.70;99.90;;;;;;5135952;27;19967;-69
2022/07/27 04:22:30;;;;;;;;;;;12.70;99.90;;;;;;5117785;27;19923;-68
2022/07/27 04:24:55;;;;;;;;;;;12.80;99.90;;;;;;5152370;27;19989;-68
2022/07/27 04:27:21;;;;;;;;;;;12.80;99.90;;;;;;5135736;27;19924;-68
2022/07/27 04:29:46;;;;;;;;;;;12.80;99.90;;;;;;5135786;27;19923;-69
2022/07/27 04:32:12;;;;;;;;;;;12.80;99.90;;;;;;5117774;27;20434;-68
2022/07/27 04:34:37;;;;;;;;;;;12.80;99.90;;;;;;5152002;27;20128;-68
2022/07/27 04:37:03;;;;;;;;;;;12.80;99.90;;;;;;5135919;27;19974;-69
2022/07/27 04:39:29;;;;;;;;;;;12.80;99.90;;;;;;5135713;27;20365;-70
2022/07/27 04:41:54;;;;;;;;;;;12.80;99.90;;;;;;5151937;27;19975;-68
2022/07/27 04:44:20;;;;;;;;;;;12.80;99.90;;;;;;5135677;27;19923;-67
2022/07/27 04:46:46;;;;;;;;;;;12.80;99.90;;;;;;5135586;27;19992;-71
2022/07/27 04:49:11;;;;;;;;;;;12.90;99.90;;;;;;5135293;27;20272;-70
2022/07/27 04:51:37;;;;;;;;;;;12.80;99.90;;;;;;5135521;27;19931;-68
2022/07/27 04:54:02;;;;;;;;;;;12.90;99.90;;;;;;5135436;27;19923;-68
2022/07/27 04:56:28;;;;;;;;;;;12.90;99.90;;;;;;5135384;27;19927;-69
2022/07/27 04:58:54;;;;;;;;;;;12.90;99.90;;;;;;5135309;27;19983;-68
2022/07/27 05:01:21;;;;;;;;;;;13.40;99.90;;;;;;5135114;27;19923;-68
2022/07/27 05:03:47;;;;;;;;;;;12.90;99.90;;;;;;5135112;27;20389;-68
2022/07/27 05:06:12;;;;;;;;;;;12.90;99.90;;;;;;5135131;27;19924;-70
2022/07/27 05:08:38;;;;;;;;;;;13.00;99.90;;;;;;5135274;27;19934;-68
2022/07/27 05:11:03;;;;;;;;;;;13.00;99.90;;;;;;5135146;27;20420;-69
2022/07/27 05:13:29;;;;;;;;;;;13.00;99.90;;;;;;5135131;27;20293;-71
2022/07/27 05:15:54;;;;;;;;;;;13.10;99.90;;;;;;5134425;27;20378;-68
2022/07/27 05:18:20;;;;;;;;;;;13.10;99.90;;;;;;5135021;27;20334;-69
2022/07/27 05:20:46;;;;;;;;;;;13.10;99.90;;;;;;5151198;27;19924;-69
2022/07/27 05:23:11;;;;;;;;;;;13.10;99.90;;;;;;5116999;27;20024;-69
2022/07/27 05:25:37;;;;;;;;;;;13.20;99.90;;;;;;5116532;27;19923;-70
2022/07/27 05:28:02;;;;;;;;;;;13.40;99.90;;;;;;5134609;27;19924;-68
2022/07/27 05:30:28;;;;;;;;;;;13.20;99.90;;;;;;5134756;27;19934;-69
2022/07/27 05:32:53;;;;;;;;;;;13.30;99.90;;;;;;5151080;27;19923;-68
2022/07/27 05:35:19;;;;;;;;;;;13.20;99.90;;;;;;5134672;27;19984;-70
2022/07/27 05:37:45;;;;;;;;;;;13.30;99.90;;;;;;5134700;27;20275;-69
2022/07/27 05:40:11;;;;;;;;;;;13.30;99.90;;;;;;5134892;28;20347;-69
2022/07/27 05:42:36;;;;;;;;;;;13.40;99.90;;;;;;5134735;28;20319;-68
2022/07/27 05:45:02;;;;;;;;;;;13.40;99.90;;;;;;5134693;28;19923;-68
2022/07/27 05:47:27;;;;;;;;;;;13.40;99.90;;;;;;5134618;28;19930;-68
2022/07/27 05:49:53;;;;;;;;;;;13.40;99.90;;;;;;5134610;28;19924;-68
2022/07/27 05:52:19;;;;;;;;;;;13.60;99.90;;;;;;5150485;27;20297;-70
2022/07/27 05:54:45;;;;;;;;;;;12.40;99.90;;;;;;5134690;28;19931;-69
2022/07/27 05:57:11;;;;;;;;;;;13.50;99.90;;;;;;5134441;28;19927;-69
2022/07/27 05:59:37;;;;;;;;;;;13.60;99.90;;;;;;5134634;28;19971;-69
2022/07/27 06:02:02;;;;;;;;;;;13.60;99.90;;;;;;5134342;28;19991;-68
2022/07/27 06:04:28;;;;;;;;;;;13.70;99.90;;;;;;5116391;28;19977;-68
2022/07/27 06:09:37;;;;;;;;;;;13.80;99.90;;;;;;5134602;28;20015;-69
2022/07/27 06:12:03;;;;;;;;;;;13.10;99.90;;;;;;5134386;28;19923;-68
2022/07/27 06:14:29;;;;;;;;;;;13.90;99.90;;;;;;5134253;28;19931;-68
2022/07/27 06:16:54;;;;;;;;;;;13.90;99.90;;;;;;5134345;28;19988;-67
2022/07/27 06:19:20;;;;;;;;;;;13.90;99.90;;;;;;5134375;28;19923;-68
2022/07/27 06:21:45;;;;;;;;;;;13.90;99.90;;;;;;5134232;28;19982;-69
2022/07/27 06:24:11;;;;;;;;;;;14.00;99.90;;;;;;5134443;28;19986;-68
2022/07/27 06:26:36;;;;;;;;;;;14.10;99.90;;;;;;5115712;28;19924;-69
2022/07/27 06:29:02;;;;;;;;;;;14.10;99.90;;;;;;5137649;27;19930;-70
2022/07/27 06:31:29;;;;;;;;;;;14.10;99.90;;;;;;5119883;27;19976;-68
2022/07/27 06:33:55;;;;;;;;;;;14.20;99.90;;;;;;5138108;27;19968;-69
2022/07/27 06:36:21;;;;;;;;;;;14.30;99.90;;;;;;5138010;27;20600;-69
2022/07/27 06:38:46;;;;;;;;;;;14.30;99.90;;;;;;5138235;27;19931;-69
2022/07/27 06:41:12;;;;;;;;;;;14.30;99.90;;;;;;5154364;27;19924;-69
2022/07/27 06:43:38;;;;;;;;;;;14.40;99.90;;;;;;5138004;27;20302;-68
2022/07/27 06:46:06;;;;;;;;;;;14.40;99.90;;;;;;5137839;27;19969;-69
2022/07/27 06:48:31;;;;;;;;;;;14.40;99.90;;;;;;5137785;27;19929;-68
2022/07/27 06:50:57;;;;;;;;;;;14.50;99.90;;;;;;5137702;27;19923;-68
2022/07/27 06:53:23;;;;;;;;;;;14.50;99.90;;;;;;5137918;27;19930;-68
2022/07/27 06:55:49;;;;;;;;;;;14.60;99.90;;;;;;5137832;27;20301;-68
2022/07/27 06:58:15;;;;;;;;;;;14.60;99.90;;;;;;5119481;27;19930;-68
2022/07/27 07:00:40;;;;;;;;;;;14.60;99.90;;;;;;5119337;27;19962;-70
2022/07/27 07:03:06;;;;;;;;;;;14.60;99.90;;;;;;5137539;27;19924;-69
2022/07/27 07:05:33;;;;;;;;;;;14.70;99.90;;;;;;5137374;27;19946;-69
2022/07/27 07:08:02;;;;;;;;;;;14.80;99.90;;;;;;5137381;27;19987;-69
2022/07/27 07:10:27;;;;;;;;;;;14.90;99.90;;;;;;5137683;27;19923;-69
2022/07/27 07:12:56;;;;;;;;;;;14.90;99.90;;;;;;5137426;27;19923;-69
2022/07/27 07:15:22;;;;;;;;;;;15.10;99.90;;;;;;5137424;27;19924;-68
2022/07/27 07:17:48;;;;;;;;;;;15.10;99.90;;;;;;5137322;27;20297;-69
2022/07/27 07:20:15;;;;;;;;;;;15.20;99.90;;;;;;5118929;27;19979;-68
2022/07/27 07:22:40;;;;;;;;;;;15.30;99.90;;;;;;5137074;27;19976;-68
2022/07/27 07:25:06;;;;;;;;;;;15.30;99.90;;;;;;5153619;27;19927;-68
2022/07/27 07:27:32;;;;;;;;;;;15.40;99.90;;;;;;5136989;27;19923;-69
2022/07/27 07:30:00;;;;;;;;;;;15.50;99.90;;;;;;5137051;27;19923;-69
2022/07/27 07:32:26;;;;;;;;;;;15.50;99.90;;;;;;5136840;27;20378;-70
2022/07/27 07:34:51;;;;;;;;;;;15.60;99.90;;;;;;5118914;27;19930;-70
2022/07/27 07:37:18;;;;;;;;;;;15.70;99.90;;;;;;5136835;27;19931;-69
2022/07/27 07:39:44;;;;;;;;;;;15.70;99.90;;;;;;5136358;27;19923;-68
2022/07/27 07:42:10;;;;;;;;;;;15.80;99.90;;;;;;5118768;27;19923;-68
2022/07/27 07:44:35;;;;;;;;;;;15.80;99.90;;;;;;5136840;27;19931;-69
2022/07/27 07:47:01;;;;;;;;;;;15.90;99.90;;;;;;5136744;27;19923;-70
2022/07/27 07:49:26;;;;;;;;;;;15.90;99.90;;;;;;5118267;27;19924;-69
2022/07/27 07:51:52;;;;;;;;;;;16.00;99.90;;;;;;5136546;27;20022;-68
2022/07/27 07:54:17;;;;;;;;;;;15.80;99.90;;;;;;5136715;27;19981;-69
2022/07/27 07:56:43;;;;;;;;;;;16.10;99.90;;;;;;5136623;27;19930;-69
2022/07/27 07:59:09;;;;;;;;;;;16.10;99.90;;;;;;5136524;27;20453;-70
2022/07/27 08:01:34;;;;;;;;;;;16.20;99.90;;;;;;5136607;27;20390;-69
2022/07/27 08:04:00;;;;;;;;;;;16.30;99.90;;;;;;5152782;27;19927;-69
2022/07/27 08:06:25;;;;;;;;;;;16.30;99.90;;;;;;5118229;27;19929;-69
2022/07/27 08:08:51;;;;;;;;;;;16.40;99.90;;;;;;5136158;27;20025;-70
2022/07/27 08:11:17;;;;;;;;;;;16.40;99.90;;;;;;5136300;27;19989;-69
2022/07/27 08:13:42;;;;;;;;;;;16.40;99.90;;;;;;5136314;27;19927;-70
2022/07/27 08:16:08;;;;;;;;;;;16.40;99.90;;;;;;5136217;27;19930;-70
2022/07/27 08:18:33;;;;;;;;;;;15.40;99.90;;;;;;5136052;27;20073;-68
2022/07/27 08:20:59;;;;;;;;;;;16.40;99.90;;;;;;5136137;27;20285;-70
2022/07/27 08:23:25;;;;;;;;;;;16.30;99.90;;;;;;5135981;27;20279;-70
2022/07/27 08:25:51;;;;;;;;;;;16.40;99.90;;;;;;5135752;27;19924;-69
2022/07/27 08:28:17;;;;;;;;;;;16.40;99.90;;;;;;5135964;27;19981;-70
2022/07/27 08:30:43;;;;;;;;;;;16.40;99.90;;;;;;5135897;27;19963;-70
2022/07/27 08:33:08;;;;;;;;;;;16.40;99.90;;;;;;5135802;27;19980;-69
2022/07/27 08:35:34;;;;;;;;;;;16.40;99.90;;;;;;5117683;27;19923;-70
2022/07/27 08:38:00;;;;;;;;;;;16.30;99.90;;;;;;5135643;27;19930;-68
2022/07/27 08:40:26;;;;;;;;;;;16.40;99.90;;;;;;5117560;27;20327;-69
2022/07/27 08:42:51;;;;;;;;;;;16.40;99.90;;;;;;5135669;27;19923;-70
2022/07/27 08:45:18;;;;;;;;;;;16.40;99.90;;;;;;5135737;27;19930;-70
2022/07/27 08:47:47;;;;;;;;;;;16.40;99.90;;;;;;5135572;27;19931;-70
2022/07/27 08:50:23;;;;;;;;;;;16.40;99.90;;;;;;5135144;27;19975;-70
2022/07/27 08:52:53;;;;;;;;;;;16.40;99.90;;;;;;5135012;27;19977;-69
2022/07/27 08:55:19;;;;;;;;;;;16.30;99.90;;;;;;5135457;27;19935;-69
2022/07/27 08:57:45;;;;;;;;;;;16.20;99.90;;;;;;5135408;27;20010;-70
2022/07/27 09:00:11;;;;;;;;;;;16.20;99.90;;;;;;5135351;27;20386;-69
2022/07/27 09:02:39;;;;;;;;;;;16.30;99.90;;;;;;5135263;27;19931;-68
2022/07/27 09:05:05;;;;;;;;;;;16.20;99.90;;;;;;5135164;27;19923;-69
2022/07/27 09:07:31;;;;;;;;;;;16.10;99.90;;;;;;5151320;27;20388;-69
2022/07/27 09:09:56;;;;;;;;;;;16.10;99.90;;;;;;5135288;27;19923;-69
2022/07/27 09:12:28;;;;;;;;;;;16.10;99.90;;;;;;5134931;27;19923;-69
2022/07/27 09:15:03;;;;;;;;;;;16.10;99.90;;;;;;5135142;27;19923;-71
2022/07/27 09:17:29;;;;;;;;;;;16.10;99.90;;;;;;5116742;27;19935;-70
2022/07/27 09:19:55;;;;;;;;;;;15.80;99.90;;;;;;5135003;27;19946;-69
2022/07/27 09:22:51;;;;;;;;;;;16.10;99.90;;;;;;5134766;27;19923;-69
2022/07/27 09:25:18;;;;;;;;;;;16.20;99.90;;;;;;5051603;28;19978;-70
2022/07/27 09:27:44;;;;;;;;;;;16.20;99.90;;;;;;5051226;28;19932;-69
2022/07/27 09:30:12;;;;;;;;;;;16.20;99.90;;;;;;5051394;28;19925;-70
2022/07/27 09:32:38;;;;;;;;;;;16.20;99.90;;;;;;5067643;28;19932;-70
2022/07/27 09:35:16;;;;;;;;;;;16.30;99.90;;;;;;5051475;28;19931;-68
2022/07/27 09:37:42;;;;;;;;;;;16.40;99.90;;;;;;5051496;28;19959;-70
2022/07/27 09:40:12;;;;;;;;;;;16.40;99.90;;;;;;5035064;28;19928;-69
2022/07/27 09:42:38;;;;;;;;;;;16.50;99.90;;;;;;5051315;28;20386;-70
2022/07/27 09:45:03;;;;;;;;;;;16.60;99.90;;;;;;5051384;28;19972;-69
2022/07/27 09:47:29;;;;;;;;;;;16.70;99.90;;;;;;5051306;28;19929;-68
2022/07/27 09:50:16;;;;;;;;;;;16.80;99.90;;;;;;5051249;28;19932;-70
2022/07/27 09:52:42;;;;;;;;;;;16.80;99.90;;;;;;5051353;28;19987;-69
2022/07/27 09:55:08;;;;;;;;;;;17.00;99.90;;;;;;5051310;28;19976;-69
2022/07/27 09:57:49;;;;;;;;;;;17.10;99.90;;;;;;5051239;28;20395;-70
2022/07/27 10:00:15;;;;;;;;;;;17.20;99.90;;;;;;5051249;28;19970;-71
2022/07/27 10:02:42;;;;;;;;;;;17.20;99.90;;;;;;5111090;28;19924;-69
2022/07/27 10:05:08;;;;;;;;;;;17.30;99.90;;;;;;5118160;28;19935;-70
2022/07/27 10:07:33;;;;;;;;;;;17.30;99.90;;;;;;5118118;28;19924;-71
2022/07/27 10:10:00;;;;;;;;;;;17.30;99.90;;;;;;5100183;28;19977;-69
2022/07/27 10:12:28;;;;;;;;;;;17.30;99.90;;;;;;5117981;28;19928;-70
2022/07/27 10:14:53;;;;;;;;;;;17.40;99.90;;;;;;5117907;28;19947;-71
2022/07/27 10:17:19;;;;;;;;;;;17.40;99.90;;;;;;5083255;28;20358;-69
2022/07/27 10:19:46;;;;;;;;;;;17.40;99.90;;;;;;5117966;28;19968;-69
2022/07/27 10:22:12;;;;;;;;;;;17.50;99.90;;;;;;5099954;28;19924;-69
2022/07/27 10:24:38;;;;;;;;;;;17.40;99.90;;;;;;5117815;28;19931;-69
2022/07/27 10:27:16;;;;;;;;;;;17.50;99.90;;;;;;5130093;27;20297;-69
2022/07/27 10:29:42;;;;;;;;;;;17.40;99.90;;;;;;5138394;27;20067;-69
2022/07/27 10:32:07;;;;;;;;;;;17.40;99.90;;;;;;5138336;27;20004;-69
2022/07/27 10:34:37;;;;;;;;;;;17.50;99.90;;;;;;5138247;27;19923;-69
2022/07/27 10:37:23;;;;;;;;;;;17.50;99.90;;;;;;5138000;27;20014;-69
2022/07/27 10:39:50;;;;;;;;;;;17.50;99.90;;;;;;5138001;27;19934;-70
2022/07/27 10:42:28;;;;;;;;;;;17.50;99.90;;;;;;5138018;27;20014;-69
2022/07/27 10:45:07;;;;;;;;;;;17.50;99.90;;;;;;5138045;27;19935;-69
2022/07/27 10:47:33;;;;;;;;;;;17.60;99.90;;;;;;5137844;27;20374;-69
2022/07/27 10:50:11;;;;;;;;;;;17.60;99.90;;;;;;5137807;27;19934;-69
2022/07/27 10:53:03;;;;;;;;;;;17.60;99.90;;;;;;5119609;27;19930;-69
2022/07/27 10:55:29;;;;;;;;;;;17.60;99.90;;;;;;5115893;27;19934;-70
2022/07/27 10:57:55;;;;;;;;;;;17.60;99.90;;;;;;5137677;27;19923;-69
2022/07/27 11:00:40;;;;;;;;;;;17.60;99.90;;;;;;5137719;27;19923;-70
2022/07/27 11:03:06;;;;;;;;;;;17.70;99.90;;;;;;5137302;27;19923;-69
2022/07/27 11:05:32;;;;;;;;;;;17.70;99.90;;;;;;5137601;27;19927;-68
2022/07/27 11:07:58;;;;;;;;;;;17.70;99.90;;;;;;5153583;27;19924;-69
2022/07/27 11:10:26;;;;;;;;;;;17.80;99.90;;;;;;5137605;27;20027;-69
2022/07/27 11:12:52;;;;;;;;;;;17.90;99.90;;;;;;5137439;27;19924;-69
2022/07/27 11:15:17;;;;;;;;;;;17.90;99.90;;;;;;5136297;27;19930;-69
2022/07/27 11:17:47;;;;;;;;;;;17.90;99.90;;;;;;5137182;27;20335;-70
2022/07/27 11:20:13;;;;;;;;;;;17.90;99.90;;;;;;5137120;27;20332;-69
2022/07/27 11:22:39;;;;;;;;;;;18.10;99.90;;;;;;5137347;27;19927;-69
2022/07/27 11:25:06;;;;;;;;;;;18.00;99.90;;;;;;5137204;27;19976;-70
2022/07/27 11:27:32;;;;;;;;;;;18.00;99.90;;;;;;5136901;27;19992;-69
2022/07/27 11:29:57;;;;;;;;;;;18.00;99.90;;;;;;5137035;27;19931;-69
2022/07/27 11:32:23;;;;;;;;;;;18.00;99.90;;;;;;5137201;27;19923;-71
2022/07/27 11:34:49;;;;;;;;;;;18.00;99.90;;;;;;5136846;27;20069;-69
2022/07/27 11:37:18;;;;;;;;;;;17.90;99.90;;;;;;5137041;27;19924;-69
2022/07/27 11:39:47;;;;;;;;;;;18.00;99.90;;;;;;5136803;27;20282;-69
2022/07/27 11:42:14;;;;;;;;;;;18.00;99.90;;;;;;5136785;27;19976;-69
2022/07/27 11:44:41;;;;;;;;;;;18.10;99.90;;;;;;5136743;27;19924;-69
2022/07/27 11:47:07;;;;;;;;;;;18.10;99.90;;;;;;5136740;27;19930;-68
2022/07/27 11:49:33;;;;;;;;;;;17.40;99.90;;;;;;5136747;27;19978;-71
2022/07/27 11:52:03;;;;;;;;;;;18.10;99.90;;;;;;5136735;27;20370;-69
2022/07/27 11:54:30;;;;;;;;;;;18.10;99.90;;;;;;5136721;27;19924;-70
2022/07/27 11:56:57;;;;;;;;;;;18.10;99.90;;;;;;5136487;27;19924;-70
2022/07/27 11:59:26;;;;;;;;;;;18.20;99.90;;;;;;5136469;27;20017;-70
2022/07/27 12:01:57;;;;;;;;;;;18.20;99.90;;;;;;5136514;27;19984;-68
2022/07/27 12:04:25;;;;;;;;;;;18.30;99.90;;;;;;5136551;27;19923;-69
2022/07/27 12:06:56;;;;;;;;;;;18.30;99.90;;;;;;5136529;27;19923;-69
2022/07/27 12:09:22;;;;;;;;;;;18.20;99.90;;;;;;5135078;27;19924;-70
2022/07/27 12:11:53;;;;;;;;;;;18.20;99.90;;;;;;5136214;27;19963;-70
2022/07/27 12:14:29;;;;;;;;;;;18.20;99.90;;;;;;5136113;27;20002;-69
2022/07/27 12:17:12;;;;;;;;;;;18.20;99.90;;;;;;5117948;27;19927;-69
2022/07/27 12:19:38;;;;;;;;;;;18.20;99.90;;;;;;5117660;27;19923;-71
2022/07/27 12:22:03;;;;;;;;;;;18.20;99.90;;;;;;5118079;27;19930;-68
2022/07/27 12:24:36;;;;;;;;;;;18.10;99.90;;;;;;5136060;27;19934;-69
2022/07/27 12:27:07;;;;;;;;;;;18.10;99.90;;;;;;5151610;27;20392;-71
2022/07/27 12:29:52;;;;;;;;;;;18.10;99.90;;;;;;5135159;27;20340;-69
2022/07/27 12:32:19;;;;;;;;;;;18.10;99.90;;;;;;5135779;27;19923;-68
2022/07/27 12:34:44;;;;;;;;;;;18.10;99.90;;;;;;5135729;27;19923;-69
2022/07/27 12:37:10;;;;;;;;;;;18.10;99.90;;;;;;5135681;27;20015;-70
2022/07/27 12:39:36;;;;;;;;;;;18.10;99.90;;;;;;5135569;27;19923;-69
2022/07/27 12:42:06;;;;;;;;;;;18.00;99.90;;;;;;5135811;27;19923;-69
2022/07/27 12:44:33;;;;;;;;;;;17.90;99.90;;;;;;5152164;27;19924;-69
2022/07/27 12:47:00;;;;;;;;;;;17.90;99.90;;;;;;5135633;27;19977;-70
2022/07/27 12:49:33;;;;;;;;;;;17.90;99.90;;;;;;5135579;27;19968;-68
2022/07/27 12:52:09;;;;;;;;;;;17.90;99.90;;;;;;5135382;27;20398;-71
2022/07/27 12:54:35;;;;;;;;;;;17.80;99.90;;;;;;5135261;27;19978;-69
2022/07/27 12:57:01;;;;;;;;;;;17.80;99.90;;;;;;5135432;27;19982;-69
2022/07/27 12:59:26;;;;;;;;;;;17.90;99.90;;;;;;5117046;27;20335;-69
2022/07/27 13:01:54;;;;;;;;;;;17.90;99.90;;;;;;5135359;27;19923;-69
2022/07/27 13:04:20;;;;;;;;;;;17.90;99.90;;;;;;5116918;27;19923;-69
2022/07/27 13:06:46;;;;;;;;;;;17.90;99.90;;;;;;5116801;27;20397;-69
2022/07/27 13:09:11;;;;;;;;;;;17.90;99.90;;;;;;5099695;27;20014;-69
2022/07/27 13:11:37;;;;;;;;;;;17.90;99.90;;;;;;5135220;27;19970;-71
2022/07/27 13:14:02;;;;;;;;;;;17.90;99.90;;;;;;5135209;27;19924;-70
2022/07/27 13:16:28;;;;;;;;;;;17.80;99.90;;;;;;5135081;27;19924;-69
2022/07/27 13:18:53;;;;;;;;;;;17.80;99.90;;;;;;5116228;27;19929;-69
2022/07/27 13:21:19;;;;;;;;;;;17.80;99.90;;;;;;5116167;27;19927;-69
2022/07/27 13:23:45;;;;;;;;;;;17.80;99.90;;;;;;5134861;27;19981;-70
2022/07/27 13:26:10;;;;;;;;;;;17.80;99.90;;;;;;5134881;27;19930;-69
2022/07/27 13:28:36;;;;;;;;;;;17.80;99.90;;;;;;5134892;27;19974;-70
2022/07/27 13:31:02;;;;;;;;;;;17.90;99.90;;;;;;5134726;27;20385;-69
2022/07/27 13:33:27;;;;;;;;;;;17.90;99.90;;;;;;5116546;27;19923;-70
2022/07/27 13:35:53;;;;;;;;;;;17.80;99.90;;;;;;5134719;27;19968;-69
2022/07/27 13:38:18;;;;;;;;;;;17.80;99.90;;;;;;5150456;27;19983;-68
2022/07/27 13:40:44;;;;;;;;;;;17.90;99.90;;;;;;5134600;27;20297;-71
2022/07/27 13:43:10;;;;;;;;;;;18.00;99.90;;;;;;5134768;27;19923;-69
2022/07/27 13:45:36;;;;;;;;;;;18.10;99.90;;;;;;5134998;28;19924;-71
2022/07/27 13:48:01;;;;;;;;;;;18.20;99.90;;;;;;5134666;28;20008;-70
2022/07/27 13:50:27;;;;;;;;;;;18.30;99.90;;;;;;5116311;28;19930;-69
2022/07/27 13:52:52;;;;;;;;;;;18.40;99.90;;;;;;5134587;28;20309;-70
2022/07/27 13:55:18;;;;;;;;;;;18.40;99.90;;;;;;5134479;28;19927;-70
2022/07/27 13:57:44;;;;;;;;;;;17.80;99.90;;;;;;5134679;28;19932;-70
2022/07/27 14:00:10;;;;;;;;;;;18.30;99.90;;;;;;5134689;28;19970;-70
2022/07/27 14:02:36;;;;;;;;;;;18.30;99.90;;;;;;5115790;28;19931;-69
2022/07/27 14:05:02;;;;;;;;;;;18.20;99.90;;;;;;5134476;28;19929;-69
2022/07/27 14:07:27;;;;;;;;;;;18.20;99.90;;;;;;5134414;28;20018;-69
2022/07/27 14:12:37;;;;;;;;;;;18.40;99.90;;;;;;5134556;28;19977;-69
2022/07/27 14:15:03;;;;;;;;;;;18.40;99.90;;;;;;5116553;28;19958;-70
2022/07/27 14:17:29;;;;;;;;;;;18.50;99.90;;;;;;5134420;28;20394;-70
2022/07/27 14:19:54;;;;;;;;;;;18.60;99.90;;;;;;5116352;28;19931;-69
2022/07/27 14:22:20;;;;;;;;;;;18.60;99.90;;;;;;5099066;28;20397;-70